Time;durP1;ratioP1;P1;durP2;ratioP2;P2;SDS_P1;SDS_P2;PMS_P1;PMS_P2;Temp;Humidity;BMP_temperature;BMP_pressure;BME280_temperature;BME280_humidity;BME280_pressure;Samples;Min_cycle;Max_cycle;Signal;HPM_P1;HPM_P2
2023/07/25 00:02:26;;;;;;;11.45;4.82;;;;;;;27.96;91.70;100498.91;20920821;28;20045;-74
2023/07/25 00:12:52;;;;;;;12.18;4.40;;;;;;;27.96;98.27;100501.59;20881020;28;20068;-74
2023/07/25 00:23:18;;;;;;;11.57;4.32;;;;;;;27.91;100.00;100484.69;20914313;28;20052;-73
2023/07/25 00:33:40;;;;;;;17.00;5.25;;;;;;;27.85;100.00;100472.38;20944173;28;20049;-73
2023/07/25 00:44:04;;;;;;;13.77;5.32;;;;;;;27.79;100.00;100458.31;20962750;28;20048;-74
2023/07/25 00:54:27;;;;;;;12.70;4.90;;;;;;;27.72;100.00;100445.13;20964190;28;20060;-74
2023/07/25 01:04:51;;;;;;;12.52;4.57;;;;;;;27.65;100.00;100430.16;20885188;28;20102;-73
2023/07/25 01:15:14;;;;;;;13.35;5.35;;;;;;;27.58;100.00;100444.19;20900518;28;20041;-74
2023/07/25 01:25:38;;;;;;;11.35;4.90;;;;;;;27.54;100.00;100438.09;20889891;28;20098;-74
2023/07/25 01:36:01;;;;;;;13.18;4.45;;;;;;;27.50;100.00;100450.06;20899387;28;20041;-74
2023/07/25 01:46:25;;;;;;;12.20;5.03;;;;;;;27.46;100.00;100451.19;20883757;28;20114;-74
2023/07/25 01:56:48;;;;;;;10.82;4.57;;;;;;;27.49;100.00;100453.75;20897999;28;20485;-74
2023/07/25 02:07:13;;;;;;;12.00;5.03;;;;;;;27.45;100.00;100444.00;20877454;28;20056;-74
2023/07/25 02:17:36;;;;;;;11.63;5.35;;;;;;;27.41;100.00;100419.91;20879331;28;20052;-74
2023/07/25 02:28:00;;;;;;;14.20;4.30;;;;;;;27.38;100.00;100421.81;20916551;28;20476;-73
2023/07/25 02:38:23;;;;;;;8.27;4.30;;;;;;;27.37;100.00;100430.91;20944610;28;20060;-73
2023/07/25 02:48:48;;;;;;;8.60;4.22;;;;;;;27.33;100.00;100444.75;20949283;28;20045;-75
2023/07/25 02:59:11;;;;;;;15.20;4.28;;;;;;;27.28;100.00;100438.72;20963884;28;20098;-73
2023/07/25 03:09:15;;;;;;;13.63;4.25;;;;;;;27.27;100.00;100472.22;20908728;28;20142;-73
2023/07/25 03:19:38;;;;;;;8.88;4.10;;;;;;;27.24;100.00;100489.53;20924298;28;20049;-73
2023/07/25 03:30:04;;;;;;;9.90;3.55;;;;;;;27.28;100.00;100485.69;20918946;28;20492;-74
2023/07/25 03:40:26;;;;;;;7.55;3.95;;;;;;;27.37;100.00;100489.72;20919023;28;20052;-74
2023/07/25 03:50:51;;;;;;;12.77;4.25;;;;;;;27.62;100.00;100486.47;20907101;28;20052;-74
2023/07/25 04:01:14;;;;;;;11.50;4.25;;;;;;;27.95;100.00;100497.13;20887047;28;20045;-74
2023/07/25 04:11:38;;;;;;;8.43;3.65;;;;;;;28.28;100.00;100527.69;20889610;28;20128;-74
2023/07/25 04:22:00;;;;;;;7.57;3.40;;;;;;;28.66;100.00;100522.59;20931554;28;20044;-74
2023/07/25 04:32:24;;;;;;;9.57;4.15;;;;;;;29.07;100.00;100539.00;20949371;28;20049;-74
2023/07/25 04:42:27;;;;;;;9.23;4.00;;;;;;;29.47;100.00;100545.44;20935562;28;20048;-74
2023/07/25 04:52:51;;;;;;;11.35;3.58;;;;;;;29.85;100.00;100551.06;20902876;28;20425;-74
2023/07/25 05:03:14;;;;;;;7.88;3.67;;;;;;;30.22;100.00;100560.31;20872222;28;20045;-74
2023/07/25 05:13:39;;;;;;;7.82;3.25;;;;;;;30.71;100.00;100573.28;20895645;28;20045;-75
2023/07/25 05:24:02;;;;;;;8.52;4.07;;;;;;;31.30;95.39;100584.47;20913137;28;20098;-75
2023/07/25 05:34:26;;;;;;;8.73;3.38;;;;;;;31.96;84.61;100586.78;20881376;28;20405;-75
2023/07/25 05:44:48;;;;;;;9.98;3.50;;;;;;;32.74;69.19;100606.22;20890823;28;20060;-75
2023/07/25 05:55:13;;;;;;;8.43;3.58;;;;;;;33.55;58.87;100609.59;20909457;28;20099;-75
2023/07/25 06:05:36;;;;;;;9.90;3.30;;;;;;;34.47;53.65;100610.09;20906638;28;20049;-75
2023/07/25 06:16:00;;;;;;;10.32;3.95;;;;;;;35.21;47.30;100608.16;20889413;28;20375;-75
2023/07/25 06:26:23;;;;;;;7.77;4.00;;;;;;;35.58;44.92;100607.41;20884713;28;20048;-76
2023/07/25 06:36:47;;;;;;;6.97;3.40;;;;;;;35.55;43.85;100607.72;20974947;28;20045;-75
2023/07/25 06:47:09;;;;;;;9.85;3.33;;;;;;;36.17;42.31;100609.31;20921246;28;20057;-76
2023/07/25 06:57:34;;;;;;;7.05;4.03;;;;;;;36.49;41.21;100620.03;20896732;28;20044;-76
2023/07/25 07:07:56;;;;;;;8.70;3.78;;;;;;;36.58;39.62;100640.28;20882798;28;20049;-77
2023/07/25 07:18:21;;;;;;;8.35;4.28;;;;;;;36.75;39.55;100647.84;20937524;28;20048;-76
2023/07/25 07:28:43;;;;;;;7.47;3.87;;;;;;;36.82;40.63;100637.09;20950577;28;20056;-76
2023/07/25 07:39:08;;;;;;;7.57;3.45;;;;;;;37.07;40.67;100642.84;20982659;28;20424;-77
2023/07/25 07:49:11;;;;;;;15.40;4.07;;;;;;;36.66;40.00;100640.44;20931130;28;20053;-77
2023/07/25 07:59:35;;;;;;;7.65;3.72;;;;;;;37.02;37.15;100623.13;20906705;28;20049;-77
2023/07/25 08:09:58;;;;;;;9.00;3.73;;;;;;;37.10;35.60;100614.09;20930210;28;20079;-78
2023/07/25 08:20:02;;;;;;;8.40;3.47;;;;;;;37.12;35.88;100614.88;20933429;28;20078;-77
2023/07/25 08:30:24;;;;;;;8.87;3.80;;;;;;;37.28;34.34;100609.59;20912814;28;20405;-78
2023/07/25 08:40:56;;;;;;;12.57;4.88;;;;;;;37.42;35.15;100622.84;20876506;28;20048;-78
2023/07/25 08:51:19;;;;;;;7.15;3.70;;;;;;;37.15;35.20;100598.06;20886526;28;20067;-79
2023/07/25 09:01:44;;;;;;;8.55;3.90;;;;;;;36.80;33.37;100576.69;20896715;28;20075;-77
2023/07/25 09:12:07;;;;;;;10.52;3.72;;;;;;;37.31;32.76;100609.28;20903394;28;20110;-78
2023/07/25 09:22:33;;;;;;;7.32;3.75;;;;;;;37.22;32.01;100581.78;20914912;28;20049;-78
2023/07/25 09:32:56;;;;;;;8.30;3.55;;;;;;;37.77;31.27;100611.09;20883344;28;20585;-78
2023/07/25 09:43:27;;;;;;;7.15;3.47;;;;;;;38.37;31.00;100607.75;20892962;28;20048;-77
2023/07/25 09:53:52;;;;;;;7.97;3.85;;;;;;;38.65;30.33;100607.53;20884827;28;20080;-79
2023/07/25 10:04:06;;;;;;;8.65;3.88;;;;;;;38.90;30.02;100596.63;20927781;28;20088;-77
2023/07/25 10:14:26;;;;;;;7.22;3.58;;;;;;;38.78;29.42;100589.66;20897379;28;20049;-77
2023/07/25 10:24:50;;;;;;;8.48;3.80;;;;;;;38.40;29.71;100585.38;20885909;28;20057;-77
2023/07/25 10:35:12;;;;;;;6.72;3.92;;;;;;;38.39;29.42;100561.56;20921467;28;20586;-76
2023/07/25 10:45:51;;;;;;;9.60;4.18;;;;;;;37.90;28.93;100542.66;20893754;28;20057;-76
2023/07/25 10:56:15;;;;;;;8.90;4.10;;;;;;;37.79;28.20;100523.59;20886065;28;20833;-77
2023/07/25 11:06:42;;;;;;;8.77;3.87;;;;;;;38.04;27.97;100510.06;20892325;28;20053;-78
2023/07/25 11:17:06;;;;;;;9.98;4.57;;;;;;;37.81;27.69;100493.94;20882349;28;20111;-77
2023/07/25 11:27:31;;;;;;;8.43;3.88;;;;;;;37.94;27.31;100500.97;20962447;28;20049;-77
2023/07/25 11:38:00;;;;;;;6.68;4.50;;;;;;;37.83;26.26;100483.63;20969920;28;20114;-77
2023/07/25 11:48:26;;;;;;;9.60;4.90;;;;;;;38.04;26.06;100461.28;20913557;28;20063;-78
2023/07/25 11:58:50;;;;;;;8.38;4.75;;;;;;;38.16;25.62;100457.22;20926362;28;20041;-77
2023/07/25 12:09:13;;;;;;;;;;;;;;;38.34;25.17;100446.13;20897019;28;20080;-78
2023/07/25 12:19:36;;;;;;;10.90;4.85;;;;;;;38.44;23.27;100433.09;20904112;28;19955;-79
2023/07/25 12:30:00;;;;;;;9.95;5.07;;;;;;;38.28;23.23;100430.22;20891090;28;20045;-77
2023/07/25 12:40:05;;;;;;;8.50;5.03;;;;;;;38.48;22.70;100420.72;20912578;28;20489;-78
2023/07/25 12:50:29;;;;;;;11.13;5.97;;;;;;;38.51;22.80;100406.63;20918907;28;20143;-77
2023/07/25 13:00:31;;;;;;;10.02;5.55;;;;;;;38.47;22.40;100415.34;20936458;28;20048;-77
2023/07/25 13:10:56;;;;;;;16.83;6.25;;;;;;;38.64;23.10;100401.50;20901420;28;20048;-78
2023/07/25 13:21:18;;;;;;;9.60;5.75;;;;;;;38.52;23.36;100408.34;20900855;28;20079;-78
2023/07/25 13:31:43;;;;;;;10.50;5.95;;;;;;;37.95;23.57;100409.81;20854416;28;20057;-77
2023/07/25 13:42:06;;;;;;;11.13;5.93;;;;;;;37.70;23.99;100408.75;20872214;28;20071;-77
2023/07/25 13:52:31;;;;;;;8.68;5.57;;;;;;;37.64;23.71;100395.59;20925765;28;20653;-77
2023/07/25 14:02:54;;;;;;;12.43;6.47;;;;;;;37.50;23.98;100387.88;20894899;28;20493;-77
2023/07/25 14:13:17;;;;;;;10.15;6.00;;;;;;;37.53;24.02;100397.72;20903909;28;20048;-76
2023/07/25 14:23:41;;;;;;;10.55;6.25;;;;;;;37.45;23.61;100381.97;20892324;28;20102;-77
2023/07/25 14:34:07;;;;;;;12.68;6.10;;;;;;;37.54;23.66;100370.00;20904995;28;20090;-76
2023/07/25 14:44:29;;;;;;;10.40;6.17;;;;;;;37.54;23.33;100361.75;20894185;28;20048;-78
2023/07/25 14:54:53;;;;;;;10.20;6.00;;;;;;;37.47;23.16;100360.66;20905172;28;20144;-78
2023/07/25 15:05:16;;;;;;;11.70;6.75;;;;;;;36.58;24.89;100357.72;20893274;28;20498;-75
2023/07/25 15:15:40;;;;;;;11.35;5.63;;;;;;;35.73;26.24;100365.25;20889712;28;20516;-76
2023/07/25 15:25:43;;;;;;;10.60;6.43;;;;;;;35.40;26.34;100366.53;20875516;28;20048;-75
2023/07/25 15:36:08;;;;;;;10.27;6.65;;;;;;;34.99;26.43;100364.88;20873235;28;20041;-75
2023/07/25 15:46:30;;;;;;;10.68;6.57;;;;;;;34.64;26.13;100359.91;20887587;28;20042;-76
2023/07/25 15:56:54;;;;;;;11.02;6.72;;;;;;;34.28;26.55;100361.34;20917406;28;20051;-76
2023/07/25 16:07:17;;;;;;;9.00;6.28;;;;;;;33.98;26.37;100356.69;20886185;28;20052;-75
2023/07/25 16:17:41;;;;;;;11.77;6.78;;;;;;;33.67;26.72;100363.97;20896296;28;20440;-76
2023/07/25 16:28:03;;;;;;;14.63;6.95;;;;;;;33.32;26.96;100352.47;20895348;28;20133;-76
2023/07/25 16:38:27;;;;;;;10.15;6.63;;;;;;;33.01;27.84;100343.22;20889390;28;20138;-77
2023/07/25 16:48:50;;;;;;;12.48;7.30;;;;;;;32.73;28.70;100342.81;20876875;28;20048;-76
2023/07/25 16:59:14;;;;;;;14.48;7.53;;;;;;;32.42;29.93;100343.59;20888274;28;20057;-77
2023/07/25 17:09:36;;;;;;;11.93;6.75;;;;;;;32.16;30.74;100347.56;20910715;28;20451;-77
2023/07/25 17:20:00;;;;;;;12.25;7.45;;;;;;;31.87;31.17;100353.47;20893617;28;20061;-74
2023/07/25 17:30:23;;;;;;;17.30;8.27;;;;;;;31.63;31.82;100360.88;20879318;28;20417;-75
2023/07/25 17:40:48;;;;;;;12.23;7.88;;;;;;;31.42;31.74;100349.72;20880867;28;20409;-75
2023/07/25 17:51:11;;;;;;;11.95;7.72;;;;;;;31.25;31.82;100348.28;20880744;28;20087;-75
2023/07/25 18:01:36;;;;;;;13.23;7.43;;;;;;;31.11;31.54;100344.91;20875871;28;20143;-74
2023/07/25 18:11:59;;;;;;;12.70;6.95;;;;;;;31.02;31.65;100340.09;20867212;28;20136;-75
2023/07/25 18:22:25;;;;;;;15.32;7.57;;;;;;;30.92;31.58;100345.38;20898346;28;20057;-75
2023/07/25 18:32:39;;;;;;;13.45;7.85;;;;;;;30.77;31.87;100335.66;20889060;28;20413;-75
2023/07/25 18:42:47;;;;;;;13.57;8.00;;;;;;;30.66;32.42;100338.28;20890823;28;20053;-75
2023/07/25 18:53:10;;;;;;;14.32;7.85;;;;;;;30.60;31.68;100320.53;20897777;28;20095;-75
2023/07/25 19:03:33;;;;;;;11.85;7.43;;;;;;;30.54;32.00;100325.56;20902573;28;20054;-75
2023/07/25 19:13:56;;;;;;;12.45;7.70;;;;;;;30.49;32.61;100315.03;20894811;28;20049;-75
2023/07/25 19:24:21;;;;;;;13.68;8.18;;;;;;;30.52;32.25;100316.66;20899141;28;20049;-76
2023/07/25 19:34:44;;;;;;;12.32;7.50;;;;;;;30.54;32.51;100312.81;20897784;28;20061;-76
2023/07/25 19:45:09;;;;;;;11.98;7.22;;;;;;;30.54;32.90;100321.00;20899658;28;20110;-77
2023/07/25 19:55:32;;;;;;;12.30;7.53;;;;;;;30.47;32.98;100322.41;20892461;28;20081;-76
2023/07/25 20:05:57;;;;;;;12.07;7.30;;;;;;;30.40;33.02;100310.22;20900949;28;20140;-76
2023/07/25 20:16:19;;;;;;;11.52;7.25;;;;;;;30.33;32.70;100314.38;20904625;28;20057;-76
2023/07/25 20:26:43;;;;;;;11.40;7.18;;;;;;;30.34;32.76;100316.97;20914345;28;20048;-75
2023/07/25 20:37:07;;;;;;;12.80;7.68;;;;;;;30.29;33.37;100315.59;20911892;28;20045;-74
2023/07/25 20:47:32;;;;;;;12.90;7.28;;;;;;;30.20;33.61;100308.94;20895034;28;20045;-74
2023/07/25 20:57:54;;;;;;;11.00;6.93;;;;;;;30.13;33.81;100326.72;20986337;28;20040;-75
2023/07/25 21:08:18;;;;;;;11.05;7.32;;;;;;;30.12;34.20;100324.13;20883421;28;20406;-75
2023/07/25 21:18:41;;;;;;;14.00;8.18;;;;;;;30.00;33.95;100326.72;20862182;28;20052;-75
2023/07/25 21:29:05;;;;;;;12.80;7.40;;;;;;;29.99;34.04;100318.69;20907902;28;20509;-75
2023/07/25 21:39:28;;;;;;;16.95;8.07;;;;;;;30.02;34.17;100313.00;20901870;28;20049;-75
2023/07/25 21:49:53;;;;;;;10.77;6.57;;;;;;;30.06;34.36;100312.66;20900462;28;20049;-75
2023/07/25 22:00:15;;;;;;;10.77;6.95;;;;;;;30.07;34.56;100322.59;20898657;28;20052;-75
2023/07/25 22:10:36;;;;;;;13.68;7.18;;;;;;;30.06;35.04;100314.56;20913399;28;20107;-74
2023/07/25 22:20:59;;;;;;;15.95;7.82;;;;;;;29.96;35.78;100311.63;20906567;28;20057;-75
2023/07/25 22:31:25;;;;;;;14.20;7.13;;;;;;;29.93;36.08;100305.53;20890338;28;20051;-75
2023/07/25 22:41:47;;;;;;;12.13;6.60;;;;;;;29.79;36.34;100298.31;20907064;28;20366;-75
2023/07/25 22:52:05;;;;;;;11.55;6.47;;;;;;;29.76;36.33;100294.94;20908597;28;20048;-75
2023/07/25 23:02:28;;;;;;;12.88;7.18;;;;;;;29.72;36.93;100294.28;20893894;28;20049;-75
2023/07/25 23:12:33;;;;;;;13.23;7.47;;;;;;;29.74;37.13;100273.25;20850550;28;20079;-75
2023/07/25 23:22:56;;;;;;;16.65;6.78;;;;;;;29.75;37.17;100249.63;20907244;28;20056;-75
2023/07/25 23:33:21;;;;;;;13.07;6.65;;;;;;;29.76;37.33;100259.53;20914039;28;20045;-75
2023/07/25 23:43:44;;;;;;;13.02;6.72;;;;;;;29.73;37.51;100246.19;20903307;28;20067;-75
2023/07/25 23:54:08;;;;;;;14.40;6.30;;;;;;;29.70;38.30;100239.09;20903053;28;20048;-75
